Latest Weather Observations for Penrith

IDN60801

Issued at 8:40 pm EDT Tuesday 31 March 2015 (issued every 30 minutes, with the page automatically refreshed every 10 minutes)

About weather observations | Map of weather stations | Latest weather observations for NSW | Other Formats
Station Details ID: 067113 Name: PENRITH LAKES AWS Lat: -33.72 Lon: 150.68 Height: 24.7 m
Data from the previous 72 hours. | See also: Recent months at Penrith
Date/Time
EDT
Temp
°C
App
Temp
°C
Dew
Point
Rel
Hum
%
Delta-T
°C
Wind Press
QNH
hPa
Press
MSL
hPa
Rain
since 9 am
mm
Dir
 
Spd
km/h
Gust
km/h
Spd
kts
Gust
kts
31/08:30pm 17.8 20.3 17.3 97 0.3 CALM 0 0 0 0 - - 1.4
31/08:00pm 18.1 20.7 17.5 96 0.4 CALM 0 0 0 0 - - 1.2
31/07:30pm 18.2 19.9 17.2 94 0.6 SSW 4 6 2 3 - - 1.2
31/07:00pm 18.6 20.4 17.3 92 0.8 SSW 4 6 2 3 - - 1.2
31/06:30pm 18.7 20.2 16.7 88 1.2 W 4 9 2 5 - - 1.2
31/06:00pm 19.1 20.1 16.9 87 1.3 NNE 7 13 4 7 - - 1.2
31/05:30pm 20.6 22.7 17.2 81 2.1 SSW 2 4 1 2 - - 0.4
31/05:00pm 20.7 22.0 17.5 82 2.0 SSW 7 11 4 6 - - 0.4
31/04:30pm 20.2 21.2 17.8 86 1.5 SSW 9 13 5 7 - - 0.4
31/04:00pm 20.7 21.0 16.9 79 2.3 S 11 17 6 9 - - 0.4
31/03:30pm 22.1 23.5 16.4 70 3.5 SSE 4 6 2 3 - - 0.4
31/03:00pm 22.1 24.0 17.7 76 2.7 NNW 4 6 2 3 - - 0.4
31/02:30pm 21.2 22.8 17.8 81 2.1 ENE 6 7 3 4 - - 0.4
31/02:00pm 21.3 22.4 18.1 82 2.0 N 9 15 5 8 - - 0.4
31/01:30pm 20.7 21.0 17.9 84 1.7 N 13 17 7 9 - - 0.4
31/01:00pm 22.1 22.8 17.9 77 2.6 ENE 11 19 6 10 - - 0.4
31/12:30pm 22.5 24.4 16.8 70 3.5 SE 2 9 1 5 - - 0.4
31/12:00pm 21.4 22.6 17.4 78 2.5 S 7 11 4 6 - - 0.4
31/11:30am 20.8 22.1 17.2 80 2.2 S 6 11 3 6 - - 0.4
31/11:00am 20.5 22.7 18.4 88 1.3 SSW 4 6 2 3 - - 0.4
31/10:30am 19.9 21.8 17.7 87 1.4 SE 4 4 2 2 - - 0.4
31/10:00am 20.4 21.8 17.4 83 1.8 SSW 6 7 3 4 - - 0.0
31/09:30am 19.8 22.2 17.9 89 1.2 SW 2 4 1 2 - - 0.0
31/09:00am 18.7 21.0 17.7 94 0.6 SSW 2 2 1 1 - - 9.4
31/08:30am 18.2 20.2 17.9 98 0.2 SSW 4 6 2 3 - - 9.4
31/08:00am 17.4 18.7 17.1 98 0.2 S 6 9 3 5 - - 9.4
31/07:30am 16.9 19.1 16.6 98 0.2 CALM 0 0 0 0 - - 9.4
31/07:00am 17.3 19.7 17.0 98 0.2 CALM 0 2 0 1 - - 9.4
31/06:30am 17.2 18.8 16.9 98 0.2 S 4 6 2 3 - - 9.4
31/06:00am 17.3 19.7 17.0 98 0.2 CALM 0 0 0 0 - - 9.4
31/05:30am 17.4 19.5 17.1 98 0.2 SSW 2 6 1 3 - - 9.4
31/05:00am 17.3 18.6 17.0 98 0.2 SW 6 7 3 4 - - 9.4
31/04:30am 17.4 19.1 17.1 98 0.2 S 4 7 2 4 - - 9.4
31/04:00am 17.5 18.6 17.2 98 0.2 SSE 7 9 4 5 - - 9.4
31/03:30am 17.5 18.6 17.2 98 0.2 SSE 7 9 4 5 - - 9.4
31/03:00am 17.6 19.0 17.3 98 0.2 SSW 6 7 3 4 - - 9.4
31/02:30am 17.5 19.6 17.2 98 0.2 W 2 4 1 2 - - 9.0
31/02:00am 17.6 19.0 17.3 98 0.2 W 6 11 3 6 - - 8.8
31/01:30am 17.6 19.0 17.3 98 0.2 W 6 7 3 4 - - 7.6
31/01:00am 17.6 18.0 17.3 98 0.2 N 11 15 6 8 - - 5.4
31/12:30am 19.4 20.0 16.8 85 1.6 N 9 19 5 10 - - 0.0
31/12:00am 19.0 19.9 16.2 84 1.7 SSW 6 9 3 5 - - 0.0
 
Date/Time
EDT
Temp
°C
App
Temp
°C
Dew
Point
Rel
Hum
%
Delta-T
°C
Wind Press
QNH
hPa
Press
MSL
hPa
Rain
since 9 am
mm
Dir
 
Spd
km/h
Gust
km/h
Spd
kts
Gust
kts
30/11:30pm 19.1 19.9 16.3 84 1.7 S 7 9 4 5 - - 0.0
30/11:00pm 19.1 20.7 16.0 82 1.8 SSW 2 4 1 2 - - 0.0
30/10:30pm 19.3 20.2 16.0 81 2.0 SSW 6 7 3 4 - - 0.0
30/10:00pm 19.6 20.8 15.9 79 2.2 S 4 4 2 2 - - 0.0
30/09:30pm 19.7 20.4 15.6 77 2.4 SW 6 7 3 4 - - 0.0
30/09:00pm 19.8 21.0 15.9 78 2.3 WSW 4 6 2 3 - - 0.0
30/08:30pm 20.3 21.4 15.5 74 2.8 W 4 6 2 3 - - 0.0
30/08:00pm 20.4 21.0 15.4 73 3.0 WSW 6 6 3 3 - - 0.0
30/07:30pm 21.1 21.7 15.2 69 3.5 SSW 6 7 3 4 - - 0.0
30/07:00pm 21.4 22.8 15.3 68 3.6 WSW 2 6 1 3 - - 0.0
30/06:30pm 22.3 22.7 14.7 62 4.5 E 6 7 3 4 - - 0.0
30/06:00pm 22.5 22.8 14.6 61 4.7 ESE 6 11 3 6 - - 0.0
30/05:30pm 22.8 24.6 15.6 64 4.3 CALM 0 4 0 2 - - 0.0
30/05:00pm 22.4 23.1 16.0 67 3.9 ENE 7 13 4 7 - - 0.0
30/04:30pm 22.0 20.7 15.8 68 3.7 NE 17 22 9 12 - - 0.0
30/04:00pm 24.5 24.6 14.0 52 6.2 E 6 11 3 6 - - 0.0
30/03:30pm 25.1 25.0 13.3 48 6.9 SSE 6 9 3 5 - - 0.0
30/03:00pm 25.2 24.7 12.8 46 7.2 ESE 7 13 4 7 - - 0.0
30/02:30pm 24.9 25.4 14.1 51 6.4 E 4 9 2 5 - - 0.0
30/02:00pm 23.7 24.9 16.0 62 4.7 SSW 4 9 2 5 - - 0.0
30/01:30pm 24.2 25.3 16.5 62 4.7 S 6 9 3 5 - - 0.0
30/01:00pm 23.3 24.1 16.4 65 4.2 S 7 13 4 7 - - 0.0
30/12:30pm 22.9 23.1 15.7 64 4.3 SE 9 19 5 10 - - 0.0
30/12:00pm 23.4 23.0 15.2 60 4.9 SSE 11 17 6 9 - - 0.0
30/11:30am 22.3 23.7 16.3 69 3.6 SE 4 6 2 3 - - 0.0
30/11:00am 21.1 23.1 16.1 73 3.0 CALM 0 4 0 2 - - 0.0
30/10:30am 20.2 21.4 16.0 77 2.5 NW 4 7 2 4 - - 0.0
30/10:00am 20.0 21.0 16.4 80 2.2 NE 6 9 3 5 - - 0.0
30/09:30am 18.8 19.8 16.8 88 1.2 NE 7 9 4 5 - - 0.0
30/09:00am 18.1 19.4 17.1 94 0.6 N 6 11 3 6 - - 0.0
30/08:30am 17.9 18.9 16.9 94 0.6 NNE 7 9 4 5 - - 0.0
30/08:00am 17.7 18.8 16.7 94 0.6 S 6 7 3 4 - - 0.0
30/07:30am 17.9 19.8 16.6 92 0.8 SE 2 4 1 2 - - 0.0
30/07:00am 18.1 20.3 16.4 90 1.0 CALM 0 0 0 0 - - 0.0
30/06:30am 18.0 20.1 16.3 90 1.0 CALM 0 2 0 1 - - 0.0
30/06:00am 17.8 19.8 16.0 89 1.1 CALM 0 0 0 0 - - 0.0
30/05:30am 17.7 19.7 15.9 89 1.1 CALM 0 0 0 0 - - 0.0
30/05:00am 17.7 19.6 15.7 88 1.2 CALM 0 0 0 0 - - 0.0
30/04:30am 17.8 19.4 16.0 89 1.1 SW 2 4 1 2 - - 0.0
30/04:00am 17.6 18.8 15.9 90 1.0 S 4 6 2 3 - - 0.0
30/03:30am 17.5 18.6 15.5 88 1.2 SSE 4 6 2 3 - - 0.0
30/03:00am 17.8 19.3 15.8 88 1.2 SSW 2 4 1 2 - - 0.0
30/02:30am 17.6 18.4 15.8 89 1.1 SSE 6 7 3 4 - - 0.0
30/02:00am 17.8 18.6 15.8 88 1.2 S 6 7 3 4 - - 0.0
30/01:30am 17.7 18.4 15.7 88 1.2 SSW 6 7 3 4 - - 0.0
30/01:00am 18.1 18.9 15.9 87 1.3 S 6 7 3 4 - - 0.0
30/12:30am 18.0 18.6 15.8 87 1.3 S 7 11 4 6 - - 0.0
30/12:00am 18.1 19.3 15.9 87 1.3 S 4 4 2 2 - - 0.0
 
Date/Time
EDT
Temp
°C
App
Temp
°C
Dew
Point
Rel
Hum
%
Delta-T
°C
Wind Press
QNH
hPa
Press
MSL
hPa
Rain
since 9 am
mm
Dir
 
Spd
km/h
Gust
km/h
Spd
kts
Gust
kts
29/11:30pm 18.6 19.8 15.8 84 1.7 W 4 6 2 3 - - 0.0
29/11:00pm 18.6 19.8 15.8 84 1.7 SSW 4 4 2 2 - - 0.0
29/10:30pm 18.8 19.7 16.0 84 1.7 SSW 6 6 3 3 - - 0.0
29/10:00pm 19.3 20.7 16.3 83 1.8 WSW 4 4 2 2 - - 0.0
29/09:30pm 19.9 21.5 16.0 78 2.3 SW 2 4 1 2 - - 0.0
29/09:00pm 20.5 21.2 15.7 74 2.9 E 6 7 3 4 - - 0.0
29/08:30pm 21.0 21.5 15.5 71 3.3 ENE 7 9 4 5 - - 0.0
29/08:00pm 21.6 22.2 15.7 69 3.5 ENE 7 9 4 5 - - 0.0
29/07:30pm 22.1 22.8 15.5 66 3.9 E 6 9 3 5 - - 0.0
29/07:00pm 22.9 23.4 15.0 61 4.7 E 6 11 3 6 - - 0.0
29/06:30pm 24.2 23.8 14.0 53 6.0 ENE 9 15 5 8 - - 0.0
29/06:00pm 25.4 24.2 9.7 37 8.6 ENE 6 7 3 4 - - 0.0
29/05:30pm 25.6 23.7 9.0 35 9.0 ENE 9 13 5 7 - - 0.0
29/05:00pm 25.9 24.1 9.3 35 9.1 ENE 9 19 5 10 - - 0.0
29/04:30pm 26.3 25.5 10.9 38 8.7 NNE 6 9 3 5 - - 0.0
29/04:00pm 26.5 25.6 10.6 37 8.9 N 6 17 3 9 - - 0.0
29/03:30pm 27.1 26.2 11.2 37 9.0 NNE 7 15 4 8 - - 0.0
29/03:00pm 27.2 26.1 10.8 36 9.3 E 7 15 4 8 - - 0.0
29/02:30pm 26.1 25.1 11.1 39 8.5 E 7 15 4 8 - - 0.0
29/02:00pm 26.8 25.9 12.5 41 8.3 ENE 9 17 5 9 - - 0.0
29/01:30pm 25.7 24.7 12.2 43 7.8 ENE 9 19 5 10 - - 0.0
29/01:00pm 25.0 23.7 12.6 46 7.2 NNE 11 19 6 10 - - 0.0
29/12:30pm 24.8 23.4 13.4 49 6.7 NE 13 22 7 12 - - 0.0
29/12:00pm 23.6 21.9 13.5 53 5.9 N 15 28 8 15 - - 0.0
29/11:30am 23.6 22.1 13.2 52 6.0 NE 13 22 7 12 - - 0.0
29/11:00am 21.1 21.4 13.3 61 4.5 SW 4 9 2 5 - - 0.0
29/10:30am 19.5 19.7 13.0 66 3.7 ESE 4 7 2 4 - - 0.0
29/10:00am 18.1 18.7 13.2 73 2.8 ENE 2 4 1 2 - - 0.0
29/09:30am 17.1 17.4 13.4 79 2.1 ENE 4 6 2 3 - - 0.0
29/09:00am 16.0 16.3 13.3 84 1.5 ENE 4 6 2 3 - - 0.0
29/08:30am 15.4 16.7 14.1 92 0.7 CALM 0 0 0 0 - - 0.0
29/08:00am 14.8 15.6 13.8 94 0.6 SSW 2 4 1 2 - - 0.0
29/07:30am 14.2 15.1 12.9 92 0.7 CALM 0 0 0 0 - - 0.0
29/07:00am 14.5 15.1 13.2 92 0.7 W 2 2 1 1 - - 0.0
29/06:30am 14.4 15.0 13.0 91 0.8 W 2 4 1 2 - - 0.0
29/06:00am 14.3 14.3 12.3 88 1.1 S 4 4 2 2 - - 0.0
29/05:30am 14.5 14.4 12.2 86 1.2 S 4 6 2 3 - - 0.0
29/05:00am 14.8 14.8 12.5 86 1.3 SSE 4 7 2 4 - - 0.0
29/04:30am 15.0 14.5 12.1 83 1.6 S 6 7 3 4 - - 0.0
29/04:00am 15.0 14.6 12.3 84 1.5 S 6 7 3 4 - - 0.0
29/03:30am 15.1 14.6 12.1 82 1.6 SW 6 6 3 3 - - 0.0
29/03:00am 15.6 15.5 12.2 80 1.9 SSW 4 6 2 3 - - 0.0
29/02:30am 16.1 15.9 11.9 76 2.3 SE 4 6 2 3 - - 0.0
29/02:00am 16.9 16.3 11.8 72 2.8 WNW 6 7 3 4 - - 0.0
29/01:30am 16.9 16.6 11.6 71 2.9 SSW 4 6 2 3 - - 0.0
29/01:00am 17.6 17.3 11.6 68 3.3 S 4 6 2 3 - - 0.0
29/12:30am 18.0 17.9 12.0 68 3.3 SSW 4 6 2 3 - - 0.0
29/12:00am 17.9 18.1 11.7 67 3.4 SSW 2 4 1 2 - - 0.0
 
Date/Time
EDT
Temp
°C
App
Temp
°C
Dew
Point
Rel
Hum
%
Delta-T
°C
Wind Press
QNH
hPa
Press
MSL
hPa
Rain
since 9 am
mm
Dir
 
Spd
km/h
Gust
km/h
Spd
kts
Gust
kts
28/11:30pm 18.0 17.7 11.6 66 3.5 SSW 4 7 2 4 - - 0.0
28/11:00pm 18.1 17.4 11.4 65 3.7 SSW 6 7 3 4 - - 0.0
28/10:30pm 18.4 17.7 11.5 64 3.8 SW 6 9 3 5 - - 0.0
28/10:00pm 18.6 17.8 11.2 62 4.0 SW 6 7 3 4 - - 0.0
28/09:30pm 18.9 18.2 11.5 62 4.1 SSW 6 7 3 4 - - 0.0
28/09:00pm 19.2 18.3 11.3 60 4.3 S 7 11 4 6 - - 0.0

Other Formats:

Comma delimited format used in spreadsheet applications
http://www.bom.gov.au/fwo/IDN60801/IDN60801.94763.axf

JavaScript Object Notation format (JSON) in row-major order
http://www.bom.gov.au/fwo/IDN60801/IDN60801.94763.json